Time;durP1;ratioP1;P1;durP2;ratioP2;P2;SDS_P1;SDS_P2;PMS_P1;PMS_P2;Temp;Humidity;BMP_temperature;BMP_pressure;BME280_temperature;BME280_humidity;BME280_pressure;Samples;Min_cycle;Max_cycle;Signal;HPM_P1;HPM_P2
2021/09/12 00:01:25;;;;;;;33.60;30.05;;;;;;;15.05;76.00;100370.42;1674696;83;20985;-50
2021/09/12 00:03:51;;;;;;;32.00;28.90;;;;;;;15.01;76.44;100371.38;1696239;83;21080;-52
2021/09/12 00:06:17;;;;;;;31.80;28.42;;;;;;;14.95;76.34;100363.67;1683684;83;20993;-52
2021/09/12 00:08:43;;;;;;;33.28;29.75;;;;;;;15.00;76.56;100375.11;1687478;83;21027;-52
2021/09/12 00:11:11;;;;;;;36.47;32.73;;;;;;;14.95;76.42;100371.72;1709562;82;21029;-50
2021/09/12 00:13:37;;;;;;;;;;;;;;;14.88;76.70;100369.63;1723987;82;21638;-52
2021/09/12 00:16:05;;;;;;;;;;;;;;;14.77;77.03;100372.46;1720557;82;20161;-51
2021/09/12 00:18:31;;;;;;;37.88;33.67;;;;;;;14.62;77.47;100376.45;1715012;82;20124;-49
2021/09/12 00:20:59;;;;;;;40.40;32.67;;;;;;;14.47;78.26;100377.53;1665161;84;21675;-50
2021/09/12 00:23:25;;;;;;;35.85;32.13;;;;;;;14.49;79.40;100374.65;1660027;83;21037;-51
2021/09/12 00:25:51;;;;;;;35.83;31.42;;;;;;;14.56;78.74;100377.59;1628573;87;21038;-51
2021/09/12 00:28:18;;;;;;;36.73;32.13;;;;;;;14.54;78.23;100378.83;1626075;87;21050;-50
2021/09/12 00:30:45;;;;;;;38.10;31.07;;;;;;;14.51;78.75;100372.57;1648923;86;21145;-53
2021/09/12 00:33:10;;;;;;;36.45;32.75;;;;;;;14.50;78.85;100382.45;1619211;86;21577;-50
2021/09/12 00:35:38;;;;;;;40.65;33.90;;;;;;;14.49;78.87;100384.03;1673553;84;21611;-51
2021/09/12 00:38:04;;;;;;;39.45;35.50;;;;;;;14.42;78.79;100377.34;1666525;84;21007;-49
2021/09/12 00:40:30;;;;;;;38.75;34.80;;;;;;;14.38;79.12;100378.28;1668931;84;21042;-50
2021/09/12 00:42:56;;;;;;;36.17;32.58;;;;;;;14.39;79.00;100381.78;1681331;84;21025;-50
2021/09/12 00:45:22;;;;;;;41.33;34.38;;;;;;;14.45;78.86;100377.42;1716634;82;21555;-50
2021/09/12 00:47:48;;;;;;;42.10;34.78;;;;;;;14.48;78.72;100375.67;1703956;82;21168;-49
2021/09/12 00:50:16;;;;;;;40.03;35.65;;;;;;;14.48;78.64;100380.50;1711775;82;20994;-50
2021/09/12 00:52:46;;;;;;;39.50;35.50;;;;;;;14.45;78.69;100382.29;1705971;82;22165;-51
2021/09/12 00:55:14;;;;;;;37.55;33.55;;;;;;;14.42;78.85;100378.69;1694494;82;21122;-50
2021/09/12 00:57:46;;;;;;;37.73;33.78;;;;;;;14.41;78.99;100377.05;1684313;83;20981;-50
2021/09/12 01:00:14;;;;;;;41.73;34.88;;;;;;;14.48;79.01;100375.67;1697560;82;20986;-50
2021/09/12 01:02:43;;;;;;;38.83;32.35;;;;;;;14.53;79.05;100373.99;1672782;83;21045;-50
2021/09/12 01:05:11;;;;;;;36.90;33.00;;;;;;;14.56;79.02;100380.78;1667471;84;20983;-50
2021/09/12 01:07:40;;;;;;;39.50;35.33;;;;;;;14.59;79.06;100375.84;1687404;84;21022;-49
2021/09/12 01:10:09;;;;;;;39.95;35.60;;;;;;;14.58;78.94;100376.89;1660956;84;21721;-50
2021/09/12 01:12:36;;;;;;;40.03;35.90;;;;;;;14.54;78.96;100373.47;1666117;84;21011;-50
2021/09/12 01:15:06;;;;;;;37.35;33.45;;;;;;;14.55;79.00;100374.59;1663188;84;21082;-55
2021/09/12 01:17:33;;;;;;;37.80;33.78;;;;;;;14.62;78.89;100371.08;1674789;84;21616;-49
2021/09/12 01:20:03;;;;;;;36.65;32.78;;;;;;;14.66;78.89;100372.33;1659134;84;21078;-50
2021/09/12 01:22:29;;;;;;;38.48;34.48;;;;;;;14.69;78.72;100373.22;1672559;81;21639;-50
2021/09/12 01:24:56;;;;;;;36.63;32.73;;;;;;;14.66;78.71;100369.64;1668090;84;21129;-51
2021/09/12 01:27:22;;;;;;;39.13;34.67;;;;;;;14.62;79.19;100372.42;1675566;84;21497;-50
2021/09/12 01:29:48;;;;;;;36.75;32.93;;;;;;;14.57;79.58;100377.11;1664080;84;21035;-50
2021/09/12 01:32:14;;;;;;;39.30;33.23;;;;;;;14.59;79.83;100371.01;1673469;84;21116;-50
2021/09/12 01:34:40;;;;;;;34.43;30.77;;;;;;;14.64;79.43;100371.72;1661326;84;20998;-50
2021/09/12 01:37:06;;;;;;;33.80;29.70;;;;;;;14.65;79.28;100368.80;1676652;84;20995;-50
2021/09/12 01:39:33;;;;;;;34.88;30.82;;;;;;;14.67;79.51;100373.95;1686092;83;21002;-50
2021/09/12 01:41:59;;;;;;;33.48;30.08;;;;;;;14.68;79.63;100373.75;1680036;84;21077;-51
2021/09/12 01:44:27;;;;;;;35.45;31.65;;;;;;;14.67;79.92;100373.95;1683808;83;21598;-50
2021/09/12 01:46:56;;;;;;;36.13;32.33;;;;;;;14.64;80.18;100372.53;1685416;83;21050;-51
2021/09/12 01:49:23;;;;;;;34.70;31.07;;;;;;;14.64;80.31;100373.88;1674762;83;22161;-51
2021/09/12 01:51:52;;;;;;;33.78;30.17;;;;;;;14.35;80.49;100320.23;1672832;83;21002;-51
2021/09/12 01:54:19;;;;;;;38.50;30.65;;;;;;;14.81;80.58;100375.55;1676366;83;20991;-51
2021/09/12 01:56:45;;;;;;;32.08;28.77;;;;;;;14.91;80.73;100372.38;1629516;87;21120;-50
2021/09/12 01:59:12;;;;;;;33.25;29.75;;;;;;;15.00;80.86;100372.43;1663612;84;21070;-50
2021/09/12 02:01:37;;;;;;;35.40;31.70;;;;;;;15.07;80.30;100367.00;1678059;84;21011;-49
2021/09/12 02:04:03;;;;;;;34.63;31.23;;;;;;;15.10;80.12;100362.55;1684664;83;21102;-49
2021/09/12 02:06:31;;;;;;;34.40;30.95;;;;;;;15.09;79.94;100367.11;1670362;84;21133;-50
2021/09/12 02:08:57;;;;;;;32.03;28.83;;;;;;;15.09;80.01;100368.45;1678321;84;21102;-50
2021/09/12 02:11:24;;;;;;;34.08;30.50;;;;;;;15.10;79.80;100365.23;1677046;84;20998;-49
2021/09/12 02:13:50;;;;;;;30.25;26.73;;;;;;;15.08;79.83;100353.89;1676701;84;21113;-50
2021/09/12 02:16:21;;;;;;;28.52;25.85;;;;;;;15.18;79.81;100366.30;1680509;84;21101;-52
2021/09/12 02:18:48;;;;;;;32.25;28.90;;;;;;;15.16;79.62;100365.70;1675443;84;21093;-49
2021/09/12 02:21:16;;;;;;;30.10;27.15;;;;;;;15.11;79.78;100368.23;1678878;84;22122;-53
2021/09/12 02:23:43;;;;;;;30.23;27.27;;;;;;;15.04;79.90;100367.45;1674898;83;21022;-51
2021/09/12 02:26:11;;;;;;;32.23;29.05;;;;;;;14.94;80.34;100364.72;1688550;83;21027;-50
2021/09/12 02:28:38;;;;;;;;;;;;;;;14.92;80.31;100366.80;1694330;83;21056;-50
2021/09/12 02:31:04;;;;;;;30.40;27.35;;;;;;;14.93;80.25;100364.41;1687954;83;20108;-50
2021/09/12 02:33:30;;;;;;;28.90;25.88;;;;;;;14.91;80.30;100362.98;1690722;83;21001;-51
2021/09/12 02:35:56;;;;;;;31.07;27.93;;;;;;;14.91;80.33;100364.33;1693168;83;21540;-50
2021/09/12 02:38:22;;;;;;;30.08;27.15;;;;;;;14.89;80.38;100365.88;1676067;83;21542;-47
2021/09/12 02:40:48;;;;;;;33.55;30.17;;;;;;;14.84;80.52;100360.33;1682023;83;21314;-51
2021/09/12 02:43:18;;;;;;;31.97;28.87;;;;;;;14.80;80.80;100360.47;1680171;83;21046;-50
2021/09/12 02:45:44;;;;;;;30.27;27.27;;;;;;;14.80;80.81;100365.83;1696871;82;21056;-49
2021/09/12 02:48:11;;;;;;;28.60;25.85;;;;;;;14.84;80.66;100361.67;1706996;82;21006;-47
2021/09/12 02:50:37;;;;;;;29.90;26.95;;;;;;;14.86;80.68;100364.15;1696884;82;21060;-47
2021/09/12 02:53:04;;;;;;;;;;;;;;;14.86;80.79;100362.31;1704297;82;21031;-47
2021/09/12 02:55:29;;;;;;;28.85;25.97;;;;;;;14.81;80.88;100362.13;1715142;82;20178;-48
2021/09/12 02:57:55;;;;;;;30.45;27.52;;;;;;;14.71;81.38;100359.07;1698936;82;21047;-48
2021/09/12 03:00:22;;;;;;;29.60;26.87;;;;;;;14.67;81.54;100364.04;1705209;82;21084;-49
2021/09/12 03:02:47;;;;;;;31.37;27.55;;;;;;;14.68;81.62;100354.97;1692053;82;21038;-48
2021/09/12 03:05:14;;;;;;;29.18;26.40;;;;;;;14.73;81.35;100358.33;1705829;82;21626;-49
2021/09/12 03:07:39;;;;;;;;;;;;;;;14.75;81.34;100354.95;1705377;82;21045;-49
2021/09/12 03:10:08;;;;;;;;;;;;;;;14.78;81.90;100356.65;1709208;82;20127;-48
2021/09/12 03:12:36;;;;;;;29.45;26.40;;;;;;;14.81;82.13;100350.58;1700146;82;20468;-48
2021/09/12 03:15:03;;;;;;;27.65;25.10;;;;;;;14.79;82.00;100350.27;1710835;82;21939;-48
2021/09/12 03:18:35;;;;;;;29.57;26.35;;;;;;;14.84;82.35;100350.13;1773375;79;22991;-47
2021/09/12 03:21:03;;;;;;;31.12;28.10;;;;;;;14.77;82.18;100356.36;1733754;80;20959;-48
2021/09/12 03:23:29;;;;;;;29.32;26.40;;;;;;;14.74;82.00;100352.76;1708425;80;21050;-47
2021/09/12 03:25:55;;;;;;;27.75;24.40;;;;;;;14.74;81.87;100354.63;1695475;83;21084;-47
2021/09/12 03:28:21;;;;;;;26.48;23.83;;;;;;;14.76;81.97;100349.34;1669214;83;21143;-47
2021/09/12 03:30:47;;;;;;;27.30;24.55;;;;;;;14.79;82.16;100352.13;1695996;83;21121;-48
2021/09/12 03:33:15;;;;;;;28.45;25.57;;;;;;;14.83;82.13;100351.18;1694683;83;21026;-48
2021/09/12 03:35:42;;;;;;;29.60;26.77;;;;;;;14.83;82.06;100347.97;1686990;83;21046;-47
2021/09/12 03:38:10;;;;;;;28.52;25.75;;;;;;;14.81;82.06;100352.73;1692454;83;21090;-47
2021/09/12 03:40:36;;;;;;;27.73;24.77;;;;;;;14.79;82.11;100355.63;1690796;83;21041;-48
2021/09/12 03:43:02;;;;;;;28.50;25.57;;;;;;;14.81;82.20;100351.39;1687906;83;21076;-48
2021/09/12 03:45:29;;;;;;;28.83;26.00;;;;;;;14.90;82.17;100354.62;1693718;83;21088;-47
2021/09/12 03:47:55;;;;;;;28.15;25.10;;;;;;;14.97;81.94;100358.09;1690278;83;21041;-49
2021/09/12 03:50:23;;;;;;;26.23;23.50;;;;;;;15.02;81.84;100350.74;1681315;83;21018;-48
2021/09/12 03:52:50;;;;;;;28.85;25.92;;;;;;;15.07;81.82;100353.58;1688617;83;21575;-48
2021/09/12 03:55:17;;;;;;;30.72;27.65;;;;;;;15.11;81.63;100352.13;1695183;83;21040;-49
2021/09/12 03:57:42;;;;;;;27.15;24.72;;;;;;;15.11;81.71;100354.81;1693441;83;21044;-48
2021/09/12 04:00:11;;;;;;;25.00;22.58;;;;;;;15.28;82.05;100351.07;1690981;83;21606;-48
2021/09/12 04:02:40;;;;;;;25.70;23.20;;;;;;;15.60;81.49;100357.19;1694406;83;21044;-47
2021/09/12 04:05:08;;;;;;;27.77;25.10;;;;;;;15.97;80.19;100359.94;1654303;85;21982;-49
2021/09/12 04:07:37;;;;;;;25.82;23.30;;;;;;;16.30;78.92;100360.09;1634608;86;21113;-48
2021/09/12 04:10:08;;;;;;;27.10;24.40;;;;;;;16.62;78.14;100351.83;1639549;85;21109;-48
2021/09/12 04:12:35;;;;;;;27.73;25.12;;;;;;;16.99;76.94;100356.61;1642082;85;21051;-50
2021/09/12 04:15:03;;;;;;;25.77;23.20;;;;;;;17.45;75.00;100352.87;1682392;82;21083;-48
2021/09/12 04:17:30;;;;;;;25.70;23.40;;;;;;;17.82;73.43;100338.63;1646849;85;21652;-48
2021/09/12 04:19:58;;;;;;;24.18;21.90;;;;;;;18.33;71.37;100351.05;1643987;85;21058;-49
2021/09/12 04:22:24;;;;;;;23.15;20.95;;;;;;;18.77;69.40;100351.34;1649439;85;21081;-49
2021/09/12 04:24:50;;;;;;;22.50;20.50;;;;;;;19.16;67.76;100346.11;1667753;84;21561;-49
2021/09/12 04:27:16;;;;;;;;;;;;;;;19.46;66.45;100349.02;1674854;84;21117;-49
2021/09/12 04:29:43;;;;;;;21.15;18.95;;;;;;;19.74;65.00;100345.92;1653048;84;20217;-49
2021/09/12 04:32:09;;;;;;;22.95;20.65;;;;;;;19.99;64.14;100343.57;1664660;84;21066;-49
2021/09/12 04:34:35;;;;;;;;;;;;;;;20.19;62.49;100347.08;1680982;84;21057;-48
2021/09/12 04:37:02;;;;;;;21.00;18.98;;;;;;;20.26;61.90;100342.81;1669006;84;20196;-49
2021/09/12 04:39:29;;;;;;;20.25;18.10;;;;;;;20.28;61.69;100346.08;1667822;84;21122;-50
2021/09/12 04:41:55;;;;;;;20.25;18.25;;;;;;;20.42;60.97;100341.92;1663941;84;21166;-49
2021/09/12 04:44:22;;;;;;;18.87;17.05;;;;;;;20.58;60.67;100342.09;1678435;84;21091;-50
2021/09/12 04:46:49;;;;;;;21.48;16.80;;;;;;;20.83;59.48;100335.33;1676571;84;21060;-49
2021/09/12 04:49:15;;;;;;;;;;;;;;;21.03;58.76;100334.16;1672760;84;21058;-49
2021/09/12 04:51:43;;;;;;;19.23;17.20;;;;;;;21.20;58.17;100328.60;1669315;84;20422;-49
2021/09/12 04:54:10;;;;;;;19.42;17.37;;;;;;;21.33;57.51;100332.77;1675168;84;21126;-50
2021/09/12 04:56:35;;;;;;;;;;;;;;;21.51;57.04;100321.55;1663173;83;21608;-49
2021/09/12 04:59:03;;;;;;;18.48;16.82;;;;;;;21.75;56.49;100323.84;1672314;84;20209;-50
2021/09/12 05:01:32;;;;;;;17.75;16.07;;;;;;;21.96;55.65;100326.11;1652744;84;21041;-50
2021/09/12 05:04:00;;;;;;;17.67;16.07;;;;;;;22.15;55.45;100325.94;1653814;85;21077;-50
2021/09/12 05:06:28;;;;;;;18.57;16.97;;;;;;;22.35;54.37;100324.40;1655996;85;21504;-51
2021/09/12 05:08:54;;;;;;;17.50;16.00;;;;;;;22.46;54.18;100321.98;1655894;85;21150;-49
2021/09/12 05:11:22;;;;;;;17.77;16.05;;;;;;;22.58;53.91;100321.73;1651284;84;21063;-51
2021/09/12 05:13:50;;;;;;;17.48;15.98;;;;;;;22.69;53.45;100320.66;1648519;86;21103;-50
2021/09/12 05:16:16;;;;;;;20.15;18.15;;;;;;;22.86;53.19;100316.34;1654565;85;21071;-50
2021/09/12 05:18:44;;;;;;;18.67;17.07;;;;;;;23.05;52.58;100315.28;1653291;85;21071;-51
2021/09/12 05:21:12;;;;;;;18.00;16.27;;;;;;;23.13;52.48;100318.00;1652351;85;21178;-49
2021/09/12 05:23:39;;;;;;;18.57;16.77;;;;;;;23.25;52.21;100313.11;1651010;84;20993;-50
2021/09/12 05:26:07;;;;;;;17.87;16.40;;;;;;;23.47;52.16;100313.34;1654984;85;21080;-51
2021/09/12 05:28:34;;;;;;;16.85;15.45;;;;;;;23.79;51.10;100314.41;1655211;85;21133;-53
2021/09/12 05:31:02;;;;;;;18.27;16.52;;;;;;;24.20;50.21;100316.94;1655537;85;21055;-51
2021/09/12 05:33:30;;;;;;;17.07;14.63;;;;;;;24.60;48.86;100312.94;1653464;84;21110;-51
2021/09/12 05:35:57;;;;;;;17.27;15.60;;;;;;;24.68;47.83;100307.70;1654717;84;21061;-53
2021/09/12 05:38:25;;;;;;;15.95;14.55;;;;;;;24.57;48.21;100307.51;1659895;84;21182;-52
2021/09/12 05:40:51;;;;;;;16.30;14.80;;;;;;;24.49;48.07;100310.25;1664089;84;21573;-54
2021/09/12 05:43:17;;;;;;;15.68;14.23;;;;;;;24.31;48.05;100312.27;1660354;84;21126;-53
2021/09/12 05:45:43;;;;;;;14.98;13.60;;;;;;;24.26;48.51;100309.03;1669592;84;21570;-54
2021/09/12 05:48:09;;;;;;;16.05;14.60;;;;;;;24.41;48.09;100312.75;1679225;84;21099;-51
2021/09/12 05:50:37;;;;;;;15.72;14.30;;;;;;;24.38;47.53;100313.33;1662241;84;21132;-53
2021/09/12 05:53:09;;;;;;;15.30;13.90;;;;;;;24.25;48.35;100309.31;1677292;84;21167;-52
2021/09/12 05:55:37;;;;;;;14.60;13.20;;;;;;;24.21;48.77;100308.24;1676594;84;21110;-52
2021/09/12 05:58:03;;;;;;;16.45;14.68;;;;;;;24.35;48.98;100306.52;1666424;84;21082;-51
2021/09/12 06:00:31;;;;;;;13.72;12.60;;;;;;;24.75;48.08;100307.41;1651786;85;21646;-56
2021/09/12 06:02:58;;;;;;;15.32;14.05;;;;;;;25.14;46.70;100305.16;1646857;85;21557;-55
2021/09/12 06:05:24;;;;;;;16.32;14.95;;;;;;;25.28;46.50;100309.97;1635029;85;21731;-56
2021/09/12 06:07:50;;;;;;;15.28;14.03;;;;;;;25.55;46.79;100305.35;1688419;83;21170;-56
2021/09/12 06:10:18;;;;;;;15.53;14.23;;;;;;;25.90;45.34;100309.59;1692410;83;22100;-54
2021/09/12 06:12:45;;;;;;;14.53;13.35;;;;;;;26.25;44.46;100310.83;1694506;83;21245;-55
2021/09/12 06:15:12;;;;;;;15.40;13.90;;;;;;;26.46;43.06;100317.61;1687722;83;21055;-55
2021/09/12 06:17:38;;;;;;;15.78;14.43;;;;;;;26.51;42.90;100310.72;1683611;83;21115;-55
2021/09/12 06:20:07;;;;;;;16.32;14.85;;;;;;;26.33;42.11;100314.25;1682180;83;21146;-54
2021/09/12 06:22:33;;;;;;;18.48;13.65;;;;;;;26.17;43.09;100316.39;1685452;83;21043;-56
2021/09/12 06:25:00;;;;;;;16.02;14.53;;;;;;;26.28;42.98;100320.61;1690472;83;21051;-56
2021/09/12 06:27:26;;;;;;;14.60;13.38;;;;;;;26.50;42.65;100318.64;1685369;83;21093;-56
2021/09/12 06:29:53;;;;;;;15.65;14.05;;;;;;;26.60;42.75;100319.91;1689071;83;21566;-54
2021/09/12 06:32:19;;;;;;;16.95;15.45;;;;;;;26.71;42.42;100317.84;1690353;83;21004;-55
2021/09/12 06:34:45;;;;;;;16.07;14.18;;;;;;;26.77;41.96;100318.58;1690821;83;21039;-56
2021/09/12 06:37:11;;;;;;;16.05;12.93;;;;;;;26.66;42.34;100322.02;1685868;83;21158;-57
2021/09/12 06:39:38;;;;;;;15.72;14.10;;;;;;;26.62;42.20;100319.62;1690979;83;21056;-56
2021/09/12 06:42:04;;;;;;;15.23;13.80;;;;;;;26.52;42.29;100320.55;1689812;83;21072;-55
2021/09/12 06:44:31;;;;;;;14.45;12.70;;;;;;;26.35;42.90;100322.44;1673026;83;21047;-55
2021/09/12 06:46:57;;;;;;;14.00;12.75;;;;;;;26.12;43.40;100319.98;1672479;83;21010;-55
2021/09/12 06:49:24;;;;;;;14.10;12.35;;;;;;;25.78;44.02;100319.54;1671212;83;21047;-56
2021/09/12 06:51:52;;;;;;;14.90;13.60;;;;;;;25.29;44.96;100326.61;1686339;83;21566;-55
2021/09/12 06:54:20;;;;;;;12.20;11.20;;;;;;;24.68;46.11;100321.89;1694148;83;21564;-56
2021/09/12 06:56:47;;;;;;;13.30;12.10;;;;;;;24.13;46.78;100323.27;1686998;83;21039;-55
2021/09/12 06:59:13;;;;;;;14.13;12.85;;;;;;;23.83;47.41;100324.19;1675870;83;21498;-55
2021/09/12 07:01:41;;;;;;;14.70;13.53;;;;;;;23.59;48.30;100317.14;1692064;83;21012;-56
2021/09/12 07:04:07;;;;;;;13.60;12.37;;;;;;;23.34;49.04;100321.55;1691764;83;21087;-56
2021/09/12 07:06:33;;;;;;;16.35;12.28;;;;;;;23.17;49.26;100324.55;1690647;83;21549;-56
2021/09/12 07:09:00;;;;;;;13.68;11.97;;;;;;;22.99;49.95;100323.14;1687386;83;21079;-56
2021/09/12 07:11:28;;;;;;;15.90;14.40;;;;;;;22.91;50.88;100327.77;1689293;83;21013;-56
2021/09/12 07:13:55;;;;;;;21.30;15.15;;;;;;;22.88;50.72;100322.87;1679530;83;21079;-55
2021/09/12 07:16:21;;;;;;;16.52;14.90;;;;;;;22.96;50.85;100329.11;1688052;83;21116;-56
2021/09/12 07:18:48;;;;;;;15.30;13.78;;;;;;;22.98;50.97;100326.13;1684389;83;21062;-55
2021/09/12 07:21:14;;;;;;;14.28;12.88;;;;;;;22.97;50.88;100326.68;1678274;83;21083;-58
2021/09/12 07:23:40;;;;;;;14.95;13.65;;;;;;;22.91;50.84;100329.13;1652368;85;21011;-56
2021/09/12 07:26:07;;;;;;;15.40;13.85;;;;;;;22.78;51.17;100329.66;1665732;84;21122;-57
2021/09/12 07:28:33;;;;;;;15.10;13.78;;;;;;;22.70;51.70;100333.73;1663477;84;21043;-55
2021/09/12 07:30:59;;;;;;;14.38;12.68;;;;;;;22.71;51.29;100332.08;1657881;85;21028;-58
2021/09/12 07:33:25;;;;;;;13.85;12.58;;;;;;;22.80;51.51;100332.92;1651775;83;21021;-57
2021/09/12 07:35:52;;;;;;;13.80;12.53;;;;;;;22.82;50.74;100329.39;1653926;84;21080;-56
2021/09/12 07:38:18;;;;;;;15.72;13.78;;;;;;;22.84;50.67;100335.37;1665494;84;21097;-57
2021/09/12 07:40:45;;;;;;;15.53;13.25;;;;;;;22.81;51.08;100327.22;1658469;84;21194;-56
2021/09/12 07:43:14;;;;;;;15.45;13.95;;;;;;;22.79;51.02;100330.73;1665439;84;21569;-56
2021/09/12 07:45:40;;;;;;;14.38;12.98;;;;;;;22.58;51.05;100291.85;1653175;84;21010;-56
2021/09/12 07:48:07;;;;;;;15.08;13.55;;;;;;;22.91;50.84;100331.84;1658148;84;21109;-56
2021/09/12 07:50:33;;;;;;;14.87;13.48;;;;;;;22.95;50.82;100327.50;1654294;84;21090;-56
2021/09/12 07:53:00;;;;;;;15.78;13.10;;;;;;;23.01;50.57;100320.97;1663676;85;21064;-56
2021/09/12 07:55:28;;;;;;;18.02;12.88;;;;;;;23.05;50.22;100319.36;1662367;84;21048;-56
2021/09/12 07:57:54;;;;;;;17.07;13.00;;;;;;;23.05;50.14;100326.16;1664010;85;21013;-55
2021/09/12 08:00:20;;;;;;;;;;;;;;;23.06;49.83;100322.92;1666202;84;21092;-55
2021/09/12 08:02:48;;;;;;;13.30;11.53;;;;;;;23.10;50.03;100324.81;1656805;84;20241;-56
2021/09/12 08:05:15;;;;;;;13.18;11.97;;;;;;;23.13;49.70;100322.91;1671502;84;22353;-56
2021/09/12 08:07:41;;;;;;;13.03;11.63;;;;;;;23.25;49.05;100325.91;1675637;84;21361;-56
2021/09/12 08:10:10;;;;;;;12.37;11.38;;;;;;;23.31;49.02;100326.16;1656031;85;21167;-56
2021/09/12 08:12:38;;;;;;;13.48;12.07;;;;;;;23.42;48.26;100334.58;1668299;84;21117;-55
2021/09/12 08:15:06;;;;;;;12.15;11.15;;;;;;;23.49;47.74;100325.59;1676043;84;21258;-55
2021/09/12 08:17:34;;;;;;;12.90;11.57;;;;;;;23.54;48.10;100311.16;1676533;84;21060;-57
2021/09/12 08:20:04;;;;;;;11.85;10.75;;;;;;;23.60;47.02;100318.77;1677296;84;21116;-55
2021/09/12 08:22:30;;;;;;;12.15;11.03;;;;;;;23.60;46.49;100311.44;1677075;84;21044;-55
2021/09/12 08:24:56;;;;;;;11.73;10.53;;;;;;;23.62;46.68;100309.77;1677438;84;21208;-57
2021/09/12 08:27:23;;;;;;;13.28;10.55;;;;;;;23.63;46.98;100310.06;1668325;84;21139;-56
2021/09/12 08:29:50;;;;;;;11.38;10.20;;;;;;;23.72;46.53;100312.48;1668167;84;21072;-56
2021/09/12 08:32:16;;;;;;;11.10;10.18;;;;;;;23.86;46.40;100314.90;1676456;84;21555;-58
2021/09/12 08:34:42;;;;;;;14.35;12.90;;;;;;;23.97;46.14;100315.69;1676419;84;20981;-56
2021/09/12 08:37:09;;;;;;;11.10;9.88;;;;;;;24.03;45.73;100317.84;1671702;84;21618;-56
2021/09/12 08:39:35;;;;;;;11.20;10.30;;;;;;;24.10;45.52;100310.19;1673323;84;21173;-56
2021/09/12 08:42:01;;;;;;;10.38;9.55;;;;;;;24.14;45.71;100308.53;1669636;84;21108;-57
2021/09/12 08:44:28;;;;;;;12.73;9.83;;;;;;;24.19;46.21;100308.52;1673329;84;21010;-55
2021/09/12 08:46:54;;;;;;;11.03;10.05;;;;;;;24.21;45.63;100308.24;1663447;84;21175;-58
2021/09/12 08:49:20;;;;;;;10.10;9.30;;;;;;;24.26;45.31;100306.31;1668908;84;21574;-57
2021/09/12 08:51:48;;;;;;;10.20;9.28;;;;;;;24.35;44.48;100310.59;1656156;84;21071;-55
2021/09/12 08:54:14;;;;;;;10.32;9.08;;;;;;;24.42;44.57;100310.30;1672005;84;21579;-56
2021/09/12 08:56:41;;;;;;;10.70;9.68;;;;;;;24.44;43.83;100308.92;1672263;84;21140;-56
2021/09/12 08:59:30;;;;;;;8.93;8.23;;;;;;;24.46;43.26;100304.00;1672151;85;21146;-56
2021/09/12 09:02:00;;;;;;;9.33;8.53;;;;;;;24.47;43.10;100308.92;1674340;84;21146;-55
2021/09/12 09:04:29;;;;;;;9.83;9.00;;;;;;;24.49;43.24;100307.53;1677875;84;21192;-56
2021/09/12 09:07:06;;;;;;;11.73;9.20;;;;;;;24.53;42.43;100311.90;1674160;85;21259;-56
2021/09/12 09:09:45;;;;;;;9.58;8.93;;;;;;;24.52;42.70;100302.09;1669666;84;21051;-55
2021/09/12 09:12:37;;;;;;;10.30;9.35;;;;;;;24.51;42.78;100299.08;1677930;84;21127;-56
2021/09/12 09:15:14;;;;;;;11.38;10.43;;;;;;;24.57;43.16;100299.34;1654951;84;21148;-55
2021/09/12 09:17:50;;;;;;;9.63;8.75;;;;;;;24.62;43.55;100302.03;1653924;84;21083;-55
2021/09/12 09:20:30;;;;;;;9.65;8.75;;;;;;;24.62;42.38;100299.84;1648218;85;21144;-56
2021/09/12 09:22:57;;;;;;;9.35;8.48;;;;;;;24.61;42.07;100299.03;1666351;83;21057;-55
2021/09/12 09:25:27;;;;;;;9.33;8.43;;;;;;;24.63;42.34;100291.94;1662976;85;21077;-55
2021/09/12 09:28:03;;;;;;;9.83;9.03;;;;;;;24.70;43.01;100294.36;1664771;85;21126;-56
2021/09/12 09:30:49;;;;;;;10.50;9.50;;;;;;;24.80;43.66;100292.91;1664378;85;21009;-55
2021/09/12 09:33:24;;;;;;;;;;;;;;;24.90;44.23;100287.36;1667840;84;21126;-55
2021/09/12 09:36:08;;;;;;;9.85;8.98;;;;;;;24.97;43.94;100283.76;1648856;85;20144;-55
2021/09/12 09:38:38;;;;;;;11.33;10.08;;;;;;;24.97;44.03;100287.05;1647899;85;21080;-57
2021/09/12 09:41:12;;;;;;;14.05;9.40;;;;;;;25.01;43.98;100282.08;1650469;85;21101;-55
2021/09/12 09:43:50;;;;;;;11.90;9.35;;;;;;;25.06;43.84;100277.95;1646656;85;21087;-55
2021/09/12 09:46:36;;;;;;;11.85;8.63;;;;;;;25.14;43.79;100277.08;1643886;84;21057;-55
2021/09/12 09:49:23;;;;;;;9.33;8.65;;;;;;;25.20;42.51;100277.28;1662177;85;21096;-55
2021/09/12 09:51:54;;;;;;;10.35;9.35;;;;;;;25.19;42.67;100274.31;1664938;85;21062;-56
2021/09/12 09:54:24;;;;;;;14.07;9.73;;;;;;;25.17;42.87;100271.87;1663664;85;21038;-56
2021/09/12 09:56:53;;;;;;;9.25;8.45;;;;;;;25.18;42.74;100276.77;1701595;82;21119;-56
2021/09/12 09:59:24;;;;;;;9.63;8.70;;;;;;;25.21;42.06;100276.20;1700558;82;21083;-55
2021/09/12 10:01:53;;;;;;;8.83;8.03;;;;;;;25.26;42.03;100281.64;1700799;82;21616;-56
2021/09/12 10:04:26;;;;;;;9.65;8.70;;;;;;;25.33;40.87;100275.27;1711481;82;21071;-56
2021/09/12 10:06:53;;;;;;;7.47;6.97;;;;;;;25.39;40.85;100274.14;1706276;82;21119;-56
2021/09/12 10:09:21;;;;;;;9.05;7.30;;;;;;;25.39;40.02;100279.59;1711192;82;21078;-56
2021/09/12 10:11:55;;;;;;;7.20;6.62;;;;;;;25.31;39.43;100282.94;1720088;82;21087;-56
2021/09/12 10:14:30;;;;;;;7.25;6.65;;;;;;;25.26;38.81;100277.55;1711924;82;21071;-57
2021/09/12 10:16:59;;;;;;;7.72;6.75;;;;;;;25.23;38.02;100276.19;1720250;82;21143;-55
2021/09/12 10:19:39;;;;;;;7.00;6.40;;;;;;;25.27;37.52;100277.80;1718660;82;21059;-56
2021/09/12 10:22:12;;;;;;;6.97;6.37;;;;;;;25.27;36.78;100275.63;1719469;82;21103;-55
2021/09/12 10:25:04;;;;;;;6.75;6.05;;;;;;;25.23;37.36;100277.55;1710017;82;21104;-55
2021/09/12 10:27:45;;;;;;;7.70;6.80;;;;;;;25.24;37.76;100272.91;1702467;82;21573;-55
2021/09/12 10:30:24;;;;;;;9.28;6.72;;;;;;;25.23;38.37;100275.39;1704940;82;21004;-56
2021/09/12 10:32:54;;;;;;;7.83;7.03;;;;;;;25.23;38.26;100272.66;1695162;82;21130;-55
2021/09/12 10:35:26;;;;;;;7.53;6.62;;;;;;;25.27;38.04;100265.52;1695894;83;21031;-55
2021/09/12 10:38:13;;;;;;;6.67;6.28;;;;;;;25.25;38.05;100265.80;1719512;82;21037;-56
2021/09/12 10:40:54;;;;;;;8.55;6.87;;;;;;;25.30;37.92;100264.95;1706466;82;21215;-56
2021/09/12 10:43:33;;;;;;;7.85;7.25;;;;;;;25.35;37.51;100268.97;1696800;82;21056;-56
2021/09/12 10:46:06;;;;;;;8.30;7.22;;;;;;;25.38;37.60;100262.15;1709062;82;21007;-54
2021/09/12 10:48:55;;;;;;;7.85;6.42;;;;;;;25.41;37.15;100256.92;1699956;82;21090;-55
2021/09/12 10:51:28;;;;;;;8.90;6.45;;;;;;;25.46;36.79;100253.31;1693920;82;21039;-56
2021/09/12 10:54:02;;;;;;;7.33;6.83;;;;;;;25.47;36.00;100251.39;1694922;82;21079;-56
2021/09/12 10:56:32;;;;;;;7.00;6.45;;;;;;;25.42;36.45;100255.80;1707420;82;21142;-59
2021/09/12 10:59:10;;;;;;;7.80;7.20;;;;;;;25.43;36.48;100243.80;1696518;82;21114;-55
2021/09/12 11:01:48;;;;;;;6.15;5.55;;;;;;;25.48;36.69;100248.94;1684032;82;21037;-55
2021/09/12 11:04:21;;;;;;;6.80;6.30;;;;;;;25.49;36.19;100245.13;1707146;82;21091;-56
2021/09/12 11:06:56;;;;;;;7.75;7.15;;;;;;;25.41;36.40;100247.91;1705393;82;21150;-54
2021/09/12 11:09:25;;;;;;;6.55;6.05;;;;;;;25.35;36.16;100244.98;1697221;82;21522;-55
2021/09/12 11:12:00;;;;;;;7.90;7.33;;;;;;;25.35;36.21;100234.88;1713733;82;21079;-55
2021/09/12 11:14:29;;;;;;;9.38;7.10;;;;;;;25.37;36.48;100238.16;1713411;82;21075;-55
2021/09/12 11:17:09;;;;;;;7.78;6.90;;;;;;;25.40;36.64;100238.11;1716520;82;21085;-55
2021/09/12 11:19:36;;;;;;;7.85;7.25;;;;;;;25.44;36.08;100244.05;1701910;82;21185;-56
2021/09/12 11:22:06;;;;;;;7.12;6.53;;;;;;;25.46;36.06;100238.31;1722242;82;21493;-54
2021/09/12 11:24:32;;;;;;;6.50;6.08;;;;;;;25.49;35.85;100235.57;1713380;82;21143;-56